createdAt,value
2022-07-25T00:00:50.241Z,5.45
2022-07-25T00:03:13.094Z,5.38
2022-07-25T00:05:40.743Z,5.30
2022-07-25T00:08:02.975Z,5.90
2022-07-25T00:10:25.249Z,4.78
2022-07-25T00:12:47.750Z,5.63
2022-07-25T00:15:10.594Z,5.32
2022-07-25T00:17:33.197Z,5.28
2022-07-25T00:19:55.505Z,5.88
2022-07-25T00:22:17.790Z,5.03
2022-07-25T00:24:40.058Z,5.88
2022-07-25T00:27:03.786Z,5.90
2022-07-25T00:29:26.557Z,5.80
2022-07-25T00:31:48.853Z,5.70
2022-07-25T00:34:11.292Z,5.28
2022-07-25T00:36:33.588Z,5.57
2022-07-25T00:38:55.836Z,5.40
2022-07-25T00:41:18.182Z,5.32
2022-07-25T00:43:44.139Z,5.97
2022-07-25T00:46:06.410Z,5.43
2022-07-25T00:48:31.062Z,5.72
2022-07-25T00:50:53.373Z,5.85
2022-07-25T00:53:15.715Z,5.88
2022-07-25T00:55:38.066Z,5.38
2022-07-25T00:58:00.812Z,5.63
2022-07-25T01:00:23.432Z,5.72
2022-07-25T01:02:45.860Z,5.10
2022-07-25T01:05:08.551Z,5.82
2022-07-25T01:07:33.429Z,5.60
2022-07-25T01:09:56.075Z,6.18
2022-07-25T01:12:18.342Z,6.07
2022-07-25T01:14:40.619Z,6.00
2022-07-25T01:17:02.903Z,5.80
2022-07-25T01:19:25.189Z,5.67
2022-07-25T01:21:47.440Z,6.60
2022-07-25T01:24:10.429Z,5.45
2022-07-25T01:26:32.741Z,6.25
2022-07-25T01:28:55.988Z,5.95
2022-07-25T01:31:18.270Z,5.82
2022-07-25T01:33:40.600Z,5.97
2022-07-25T01:36:02.856Z,6.85
2022-07-25T01:38:25.242Z,6.10
2022-07-25T01:40:47.882Z,7.03
2022-07-25T01:43:10.607Z,6.15
2022-07-25T01:45:34.256Z,6.30
2022-07-25T01:47:56.553Z,5.87
2022-07-25T01:50:18.819Z,5.90
2022-07-25T01:52:41.164Z,6.53
2022-07-25T01:55:03.424Z,6.20
2022-07-25T01:57:27.426Z,6.18
2022-07-25T01:59:53.129Z,6.40
2022-07-25T02:02:15.410Z,6.30
2022-07-25T02:04:37.923Z,6.47
2022-07-25T02:07:00.431Z,6.60
2022-07-25T02:09:22.718Z,6.53
2022-07-25T02:11:45.005Z,6.30
2022-07-25T02:14:08.643Z,5.67
2022-07-25T02:16:32.414Z,6.55
2022-07-25T02:18:54.814Z,6.00
2022-07-25T02:21:17.109Z,6.10
2022-07-25T02:23:40.633Z,6.00
2022-07-25T02:26:04.077Z,5.93
2022-07-25T02:28:26.307Z,6.60
2022-07-25T02:30:54.692Z,6.20
2022-07-25T02:33:17.008Z,6.45
2022-07-25T02:35:39.256Z,6.07
2022-07-25T02:38:01.541Z,6.55
2022-07-25T02:40:23.926Z,5.93
2022-07-25T02:42:46.152Z,6.13
2022-07-25T02:45:08.664Z,6.63
2022-07-25T02:47:30.912Z,6.68
2022-07-25T02:49:53.158Z,6.27
2022-07-25T02:52:15.454Z,6.30
2022-07-25T02:54:37.746Z,6.00
2022-07-25T02:56:59.991Z,6.83
2022-07-25T02:59:22.446Z,6.47
2022-07-25T03:01:44.768Z,7.13
2022-07-25T03:04:07.401Z,6.77
2022-07-25T03:06:30.049Z,6.80
2022-07-25T03:08:52.284Z,6.73
2022-07-25T03:11:16.818Z,6.43
2022-07-25T03:13:39.192Z,6.87
2022-07-25T03:16:02.002Z,6.30
2022-07-25T03:18:24.239Z,6.87
2022-07-25T03:20:46.494Z,6.70
2022-07-25T03:23:08.767Z,6.70
2022-07-25T03:25:31.023Z,6.37
2022-07-25T03:27:53.516Z,6.50
2022-07-25T03:30:15.957Z,7.00
2022-07-25T03:32:38.245Z,6.13
2022-07-25T03:35:00.650Z,6.37
2022-07-25T03:37:22.878Z,6.60
2022-07-25T03:39:45.191Z,7.30
2022-07-25T03:42:07.474Z,7.20
2022-07-25T03:44:29.743Z,6.83
2022-07-25T03:46:52.681Z,6.97
2022-07-25T03:49:15.018Z,7.43
2022-07-25T03:51:37.334Z,7.40
2022-07-25T03:54:02.488Z,7.33
2022-07-25T03:56:24.911Z,6.93
2022-07-25T03:58:47.232Z,7.07
2022-07-25T04:01:09.554Z,7.33
2022-07-25T04:03:33.081Z,6.47
2022-07-25T04:05:55.343Z,7.03
2022-07-25T04:08:17.582Z,6.93
2022-07-25T04:10:39.846Z,6.10
2022-07-25T04:13:03.305Z,7.27
2022-07-25T04:15:25.581Z,6.60
2022-07-25T04:17:47.875Z,6.83
2022-07-25T04:20:11.091Z,6.73
2022-07-25T04:22:33.721Z,6.30
2022-07-25T04:24:55.970Z,6.40
2022-07-25T04:27:18.374Z,5.93
2022-07-25T04:29:40.637Z,6.90
2022-07-25T04:32:02.996Z,5.97
2022-07-25T04:34:25.382Z,7.03
2022-07-25T04:36:47.622Z,7.13
2022-07-25T04:39:09.866Z,7.13
2022-07-25T04:41:32.196Z,6.35
2022-07-25T04:43:54.518Z,5.93
2022-07-25T04:46:20.949Z,5.82
2022-07-25T04:48:43.303Z,4.80
2022-07-25T04:51:17.927Z,5.00
2022-07-25T04:53:40.174Z,4.90
2022-07-25T04:56:02.489Z,5.50
2022-07-25T04:58:24.815Z,5.47
2022-07-25T05:00:47.134Z,5.07
2022-07-25T05:03:09.404Z,5.10
2022-07-25T05:05:31.687Z,5.05
2022-07-25T05:08:00.735Z,5.15
2022-07-25T05:10:23.053Z,4.80
2022-07-25T05:12:45.294Z,5.30
2022-07-25T05:15:07.886Z,5.25
2022-07-25T05:17:30.141Z,5.22
2022-07-25T05:19:52.422Z,5.43
2022-07-25T05:22:14.969Z,4.40
2022-07-25T05:24:37.928Z,4.32
2022-07-25T05:27:00.163Z,4.80
2022-07-25T05:29:23.235Z,4.75
2022-07-25T05:31:45.676Z,4.55
2022-07-25T05:34:08.581Z,4.93
2022-07-25T05:36:31.224Z,4.55
2022-07-25T05:38:54.646Z,4.53
2022-07-25T05:41:16.897Z,4.82
2022-07-25T05:43:39.313Z,4.30
2022-07-25T05:46:02.261Z,4.95
2022-07-25T05:48:24.528Z,4.45
2022-07-25T05:50:46.957Z,4.78
2022-07-25T05:53:09.324Z,4.30
2022-07-25T05:55:31.649Z,4.03
2022-07-25T05:57:54.217Z,4.75
2022-07-25T06:00:16.691Z,4.63
2022-07-25T06:02:39.158Z,4.53
2022-07-25T06:05:01.722Z,4.88
2022-07-25T06:07:24.000Z,3.92
2022-07-25T06:09:46.450Z,4.30
2022-07-25T06:12:08.689Z,4.63
2022-07-25T06:14:31.848Z,6.38
2022-07-25T06:16:54.246Z,8.82
2022-07-25T06:19:16.619Z,6.65
2022-07-25T06:21:38.987Z,6.68
2022-07-25T06:24:01.363Z,5.45
2022-07-25T06:26:24.756Z,5.38
2022-07-25T06:28:47.565Z,4.10
2022-07-25T06:31:09.961Z,3.85
2022-07-25T06:33:32.259Z,4.50
2022-07-25T06:35:54.512Z,4.03
2022-07-25T06:38:16.855Z,4.18
2022-07-25T06:40:39.077Z,3.90
2022-07-25T06:43:01.400Z,4.00
2022-07-25T06:45:25.301Z,4.32
2022-07-25T06:47:47.745Z,4.85
2022-07-25T06:50:11.974Z,4.65
2022-07-25T06:52:34.434Z,4.60
2022-07-25T06:54:56.669Z,4.30
2022-07-25T06:57:19.218Z,3.80
2022-07-25T06:59:41.458Z,4.00
2022-07-25T07:02:03.710Z,4.13
2022-07-25T07:04:25.982Z,4.90
2022-07-25T07:06:48.194Z,4.88
2022-07-25T07:09:10.711Z,4.70
2022-07-25T07:11:34.345Z,5.10
2022-07-25T07:13:56.556Z,5.22
2022-07-25T07:16:19.021Z,4.93
2022-07-25T07:18:44.659Z,4.63
2022-07-25T07:21:11.280Z,4.85
2022-07-25T07:23:43.506Z,4.82
2022-07-25T07:26:06.637Z,4.65
2022-07-25T07:28:30.403Z,4.72
2022-07-25T07:31:15.289Z,5.28
2022-07-25T07:33:35.284Z,5.35
2022-07-25T07:35:57.556Z,4.80
2022-07-25T07:38:19.888Z,5.63
2022-07-25T07:40:42.113Z,5.05
2022-07-25T07:43:04.481Z,4.97
2022-07-25T07:45:26.694Z,5.20
2022-07-25T07:47:49.840Z,5.35
2022-07-25T07:50:12.312Z,4.60
2022-07-25T07:52:34.682Z,5.35
2022-07-25T07:55:15.616Z,5.07
2022-07-25T07:57:38.017Z,5.32
2022-07-25T08:00:00.253Z,4.97
2022-07-25T08:02:22.859Z,5.18
2022-07-25T08:04:45.126Z,5.10
2022-07-25T08:07:07.420Z,4.88
2022-07-25T08:09:30.065Z,5.22
2022-07-25T08:11:53.331Z,4.50
2022-07-25T08:14:16.267Z,4.82
2022-07-25T08:16:42.077Z,5.03
2022-07-25T08:19:23.377Z,5.45
2022-07-25T08:21:46.737Z,4.95
2022-07-25T08:24:10.543Z,5.00
2022-07-25T08:26:37.313Z,4.78
2022-07-25T08:29:18.037Z,5.65
2022-07-25T08:31:41.370Z,4.00
2022-07-25T08:34:07.222Z,4.70
2022-07-25T08:36:34.606Z,4.35
2022-07-25T08:39:18.998Z,5.00
2022-07-25T08:41:42.566Z,4.97
2022-07-25T08:44:28.054Z,4.75
2022-07-25T08:46:50.950Z,4.70
2022-07-25T08:49:13.557Z,4.70
2022-07-25T08:51:38.200Z,5.10
2022-07-25T08:54:12.470Z,5.05
2022-07-25T08:56:40.192Z,5.32
2022-07-25T08:59:02.947Z,5.03
2022-07-25T09:01:34.877Z,5.00
2022-07-25T09:03:58.374Z,4.53
2022-07-25T09:06:22.387Z,4.60
2022-07-25T09:08:59.137Z,4.80
2022-07-25T09:11:28.834Z,4.25
2022-07-25T09:13:58.319Z,4.53
2022-07-25T09:16:29.635Z,5.38
2022-07-25T09:18:53.364Z,4.75
2022-07-25T09:21:18.028Z,5.00
2022-07-25T09:26:20.805Z,5.20
2022-07-25T09:28:51.449Z,4.63
2022-07-25T09:31:17.108Z,4.90
2022-07-25T09:34:03.654Z,5.15
2022-07-25T09:36:26.471Z,5.03
2022-07-25T09:38:52.924Z,5.03
2022-07-25T09:41:24.407Z,4.07
2022-07-25T09:43:47.677Z,4.40
2022-07-25T09:46:11.084Z,4.32
2022-07-25T09:48:39.955Z,4.82
2022-07-25T09:51:03.997Z,4.53
2022-07-25T09:53:26.437Z,4.20
2022-07-25T09:55:48.969Z,3.60
2022-07-25T09:58:11.407Z,4.47
2022-07-25T10:00:34.144Z,4.60
2022-07-25T10:02:58.805Z,4.13
2022-07-25T10:05:48.198Z,3.88
2022-07-25T10:08:14.643Z,3.78
2022-07-25T10:10:39.948Z,4.05
2022-07-25T10:13:13.757Z,3.90
2022-07-25T10:15:47.664Z,4.00
2022-07-25T10:18:16.967Z,4.13
2022-07-25T10:20:44.724Z,3.83
2022-07-25T10:23:20.575Z,4.32
2022-07-25T10:26:08.309Z,4.35
2022-07-25T10:28:57.315Z,4.53
2022-07-25T10:31:22.189Z,4.72
2022-07-25T10:33:48.703Z,4.85
2022-07-25T10:36:15.333Z,4.75
2022-07-25T10:38:42.846Z,4.60
2022-07-25T10:41:05.726Z,4.30
2022-07-25T10:43:38.129Z,4.75
2022-07-25T10:46:02.355Z,5.00
2022-07-25T10:48:29.647Z,4.53
2022-07-25T10:51:00.994Z,4.10
2022-07-25T10:54:00.905Z,4.28
2022-07-25T10:56:28.250Z,4.38
2022-07-25T10:58:55.700Z,4.57
2022-07-25T11:01:24.951Z,4.63
2022-07-25T11:03:49.909Z,4.03
2022-07-25T11:06:22.265Z,5.18
2022-07-25T11:08:51.242Z,4.40
2022-07-25T11:11:13.817Z,4.53
2022-07-25T11:13:41.078Z,5.00
2022-07-25T11:16:09.205Z,4.57
2022-07-25T11:18:41.002Z,4.10
2022-07-25T11:21:06.611Z,4.03
2022-07-25T11:23:29.745Z,4.00
2022-07-25T11:25:52.164Z,4.45
2022-07-25T11:28:14.930Z,4.28
2022-07-25T11:30:40.137Z,4.47
2022-07-25T11:33:04.018Z,4.20
2022-07-25T11:35:36.557Z,4.70
2022-07-25T11:38:10.282Z,4.55
2022-07-25T11:40:45.249Z,5.05
2022-07-25T11:43:07.687Z,5.20
2022-07-25T11:45:43.035Z,4.55
2022-07-25T11:48:10.560Z,4.60
2022-07-25T11:50:33.623Z,5.20
2022-07-25T11:52:59.715Z,4.15
2022-07-25T11:55:28.581Z,4.57
2022-07-25T11:57:58.123Z,5.30
2022-07-25T12:00:22.061Z,5.15
2022-07-25T12:02:44.467Z,5.20
2022-07-25T12:05:08.311Z,4.90
2022-07-25T12:07:39.796Z,4.95
2022-07-25T12:10:02.076Z,4.82
2022-07-25T12:12:24.917Z,5.03
2022-07-25T12:14:47.216Z,5.38
2022-07-25T12:17:09.499Z,5.50
2022-07-25T12:19:32.295Z,4.60
2022-07-25T12:21:54.539Z,5.25
2022-07-25T12:24:16.913Z,4.90
2022-07-25T12:26:39.299Z,5.25
2022-07-25T12:29:01.606Z,4.63
2022-07-25T12:31:28.528Z,4.40
2022-07-25T12:33:51.623Z,4.63
2022-07-25T12:36:14.254Z,4.95
2022-07-25T12:38:37.700Z,4.40
2022-07-25T12:41:00.674Z,4.07
2022-07-25T12:43:23.101Z,4.50
2022-07-25T12:45:47.715Z,4.68
2022-07-25T12:48:10.523Z,3.85
2022-07-25T12:50:32.766Z,3.88
2022-07-25T12:52:55.066Z,4.25
2022-07-25T12:55:18.653Z,3.78
2022-07-25T12:57:41.104Z,2.85
2022-07-25T13:00:08.025Z,3.28
2022-07-25T13:02:30.456Z,3.22
2022-07-25T13:04:52.794Z,3.53
2022-07-25T13:07:16.058Z,2.75
2022-07-25T13:09:38.310Z,2.95
2022-07-25T13:12:00.653Z,2.72
2022-07-25T13:14:22.917Z,2.90
2022-07-25T13:16:45.768Z,2.70
2022-07-25T13:19:09.034Z,2.70
2022-07-25T13:21:31.566Z,2.15
2022-07-25T13:23:53.834Z,1.92
2022-07-25T13:26:16.250Z,1.85
2022-07-25T13:28:38.546Z,2.33
2022-07-25T13:31:01.889Z,2.28
2022-07-25T13:33:24.534Z,2.22
2022-07-25T13:35:46.913Z,1.83
2022-07-25T13:38:12.291Z,1.92
2022-07-25T13:40:34.761Z,1.48
2022-07-25T13:42:57.037Z,2.00
2022-07-25T13:45:19.344Z,1.63
2022-07-25T13:47:41.696Z,1.70
2022-07-25T13:50:04.010Z,1.77
2022-07-25T13:52:26.308Z,1.70
2022-07-25T13:54:48.821Z,1.40
2022-07-25T13:57:11.112Z,1.50
2022-07-25T13:59:33.524Z,1.58
2022-07-25T14:01:55.845Z,1.58
2022-07-25T14:04:18.196Z,1.35
2022-07-25T14:06:40.464Z,1.30
2022-07-25T14:09:02.735Z,1.50
2022-07-25T14:11:30.164Z,1.45
2022-07-25T14:13:52.898Z,1.50
2022-07-25T14:16:19.020Z,1.67
2022-07-25T14:18:41.667Z,1.15
2022-07-25T14:21:04.001Z,1.40
2022-07-25T14:23:29.898Z,1.20
2022-07-25T14:25:52.633Z,1.17
2022-07-25T14:28:14.907Z,1.20
2022-07-25T14:30:37.160Z,1.35
2022-07-25T14:32:59.429Z,1.52
2022-07-25T14:35:21.710Z,1.30
2022-07-25T14:37:44.101Z,0.88
2022-07-25T14:40:07.070Z,1.02
2022-07-25T14:42:29.535Z,0.90
2022-07-25T14:44:51.795Z,1.55
2022-07-25T14:47:14.248Z,1.20
2022-07-25T14:49:36.663Z,1.23
2022-07-25T14:51:58.934Z,1.23
2022-07-25T14:54:21.261Z,1.00
2022-07-25T14:56:44.635Z,1.35
2022-07-25T14:59:08.209Z,1.02
2022-07-25T15:01:31.333Z,1.40
2022-07-25T15:03:54.299Z,1.33
2022-07-25T15:06:17.400Z,1.23
2022-07-25T15:08:39.894Z,1.35
2022-07-25T15:11:02.540Z,0.85
2022-07-25T15:13:32.553Z,1.10
2022-07-25T15:15:56.162Z,1.20
2022-07-25T15:18:18.476Z,1.55
2022-07-25T15:20:40.823Z,1.00
2022-07-25T15:23:03.111Z,1.10
2022-07-25T15:25:59.891Z,1.30
2022-07-25T15:28:08.384Z,1.50
2022-07-25T15:30:30.906Z,1.45
2022-07-25T15:32:53.258Z,0.90
2022-07-25T15:35:15.564Z,1.25
2022-07-25T15:37:37.830Z,1.33
2022-07-25T15:40:00.433Z,1.35
2022-07-25T15:42:27.014Z,1.10
2022-07-25T15:45:03.851Z,1.38
2022-07-25T15:47:33.777Z,0.90
2022-07-25T15:49:56.169Z,1.23
2022-07-25T15:52:24.826Z,1.10
2022-07-25T15:54:47.095Z,1.20
2022-07-25T15:57:09.529Z,1.20
2022-07-25T15:59:31.781Z,1.20
2022-07-25T16:01:54.044Z,1.17
2022-07-25T16:04:16.364Z,0.93
2022-07-25T16:06:38.701Z,1.02
2022-07-25T16:09:01.098Z,1.00
2022-07-25T16:11:23.443Z,0.90
2022-07-25T16:13:45.784Z,1.02
2022-07-25T16:16:08.254Z,1.20
2022-07-25T16:18:30.581Z,1.00
2022-07-25T16:20:53.186Z,1.10
2022-07-25T16:23:15.538Z,1.27
2022-07-25T16:25:38.006Z,0.95
2022-07-25T16:28:00.578Z,1.10
2022-07-25T16:30:23.818Z,1.17
2022-07-25T16:32:46.173Z,1.00
2022-07-25T16:35:08.649Z,1.08
2022-07-25T16:37:30.913Z,0.88
2022-07-25T16:39:53.733Z,1.02
2022-07-25T16:42:16.010Z,1.00
2022-07-25T16:44:38.269Z,0.95
2022-07-25T16:47:00.599Z,0.98
2022-07-25T16:49:24.148Z,1.00
2022-07-25T16:51:47.755Z,1.13
2022-07-25T16:54:10.231Z,1.02
2022-07-25T16:56:32.548Z,1.00
2022-07-25T16:58:54.825Z,1.30
2022-07-25T17:01:17.474Z,0.80
2022-07-25T17:03:39.827Z,1.13
2022-07-25T17:06:02.337Z,1.10
2022-07-25T17:08:26.290Z,1.25
2022-07-25T17:10:48.612Z,0.90
2022-07-25T17:13:10.936Z,1.08
2022-07-25T17:15:33.186Z,1.10
2022-07-25T17:17:55.625Z,0.90
2022-07-25T17:20:19.195Z,1.15
2022-07-25T17:22:41.521Z,1.00
2022-07-25T17:25:03.854Z,1.00
2022-07-25T17:27:26.187Z,0.90
2022-07-25T17:29:48.510Z,1.27
2022-07-25T17:32:10.853Z,1.30
2022-07-25T17:34:33.614Z,0.93
2022-07-25T17:36:57.157Z,0.90
2022-07-25T17:39:19.475Z,1.25
2022-07-25T17:41:41.740Z,1.15
2022-07-25T17:44:09.966Z,0.85
2022-07-25T17:46:34.191Z,0.85
2022-07-25T17:48:56.590Z,1.13
2022-07-25T17:51:18.937Z,1.10
2022-07-25T17:53:41.224Z,1.05
2022-07-25T17:56:04.345Z,1.08
2022-07-25T17:58:26.659Z,1.08
2022-07-25T18:00:48.954Z,0.95
2022-07-25T18:03:12.402Z,1.15
2022-07-25T18:05:40.716Z,1.20
2022-07-25T18:08:06.233Z,1.20
2022-07-25T18:10:28.674Z,1.20
2022-07-25T18:12:52.133Z,1.17
2022-07-25T18:15:34.837Z,1.10
2022-07-25T18:18:00.135Z,1.15
2022-07-25T18:20:22.778Z,1.27
2022-07-25T18:22:45.843Z,1.23
2022-07-25T18:25:10.729Z,1.13
2022-07-25T18:28:01.360Z,1.27
2022-07-25T18:30:29.299Z,0.80
2022-07-25T18:33:08.012Z,1.17
2022-07-25T18:35:41.397Z,1.27
2022-07-25T18:38:04.163Z,1.02
2022-07-25T18:40:27.101Z,1.13
2022-07-25T18:42:49.762Z,1.27
2022-07-25T18:45:14.859Z,1.15
2022-07-25T18:47:43.851Z,1.00
2022-07-25T18:50:11.298Z,1.08
2022-07-25T18:52:37.631Z,1.30
2022-07-25T18:55:02.130Z,0.93
2022-07-25T18:57:38.783Z,1.10
2022-07-25T19:00:11.081Z,1.38
2022-07-25T19:02:37.699Z,1.30
2022-07-25T19:05:04.254Z,1.02
2022-07-25T19:10:15.321Z,1.20
2022-07-25T19:12:40.538Z,1.30
2022-07-25T19:15:03.287Z,1.27
2022-07-25T19:17:31.502Z,1.42
2022-07-25T19:19:58.294Z,1.20
2022-07-25T19:22:27.787Z,1.40
2022-07-25T19:24:51.288Z,1.40
2022-07-25T19:27:14.066Z,1.70
2022-07-25T19:29:46.973Z,1.20
2022-07-25T19:32:09.613Z,1.38
2022-07-25T19:34:32.258Z,1.15
2022-07-25T19:36:58.297Z,1.35
2022-07-25T19:39:21.043Z,1.40
2022-07-25T19:41:47.332Z,1.33
2022-07-25T19:44:14.410Z,1.23
2022-07-25T19:46:37.173Z,1.58
2022-07-25T19:49:04.743Z,1.48
2022-07-25T19:51:28.164Z,1.65
2022-07-25T19:53:51.257Z,1.75
2022-07-25T19:56:20.827Z,1.20
2022-07-25T19:58:45.214Z,1.33
2022-07-25T20:01:20.106Z,1.30
2022-07-25T20:03:42.886Z,1.65
2022-07-25T20:06:09.096Z,1.67
2022-07-25T20:08:31.870Z,1.42
2022-07-25T20:11:06.799Z,1.67
2022-07-25T20:13:30.046Z,1.42
2022-07-25T20:15:52.599Z,1.67
2022-07-25T20:18:19.659Z,1.45
2022-07-25T20:23:23.452Z,1.40
2022-07-25T20:25:49.285Z,1.38
2022-07-25T20:28:20.836Z,1.75
2022-07-25T20:30:44.313Z,1.70
2022-07-25T20:33:31.001Z,1.63
2022-07-25T20:35:58.234Z,1.75
2022-07-25T20:38:30.836Z,1.23
2022-07-25T20:41:14.052Z,1.60
2022-07-25T20:43:38.131Z,1.40
2022-07-25T20:46:02.444Z,1.33
2022-07-25T20:48:26.864Z,1.70
2022-07-25T20:53:41.779Z,1.63
2022-07-25T20:56:13.539Z,1.40
2022-07-25T20:58:42.322Z,1.80
2022-07-25T21:01:06.099Z,1.80
2022-07-25T21:04:14.890Z,1.90
2022-07-25T21:06:49.616Z,1.63
2022-07-25T21:09:18.522Z,1.75
2022-07-25T21:11:47.920Z,1.55
2022-07-25T21:14:10.826Z,1.63
2022-07-25T21:16:37.296Z,1.83
2022-07-25T21:19:00.366Z,1.70
2022-07-25T21:21:29.562Z,1.95
2022-07-25T21:23:52.807Z,1.92
2022-07-25T21:26:15.432Z,1.88
2022-07-25T21:28:37.665Z,1.75
2022-07-25T21:30:59.994Z,1.88
2022-07-25T21:33:22.238Z,1.77
2022-07-25T21:35:50.482Z,1.92
2022-07-25T21:38:26.931Z,1.83
2022-07-25T21:40:50.811Z,1.58
2022-07-25T21:43:13.236Z,1.55
2022-07-25T21:45:35.596Z,1.88
2022-07-25T21:47:58.397Z,1.83
2022-07-25T21:50:43.575Z,1.58
2022-07-25T21:53:07.224Z,2.17
2022-07-25T21:55:29.433Z,1.50
2022-07-25T21:57:51.754Z,1.60
2022-07-25T22:00:14.800Z,1.90
2022-07-25T22:02:37.162Z,1.67
2022-07-25T22:04:59.524Z,1.45
2022-07-25T22:07:22.227Z,1.65
2022-07-25T22:09:44.606Z,1.73
2022-07-25T22:12:07.117Z,1.77
2022-07-25T22:14:29.561Z,1.58
2022-07-25T22:16:52.219Z,1.77
2022-07-25T22:19:14.541Z,2.47
2022-07-25T22:21:36.781Z,1.25
2022-07-25T22:23:59.279Z,1.90
2022-07-25T22:26:21.690Z,1.63
2022-07-25T22:28:43.996Z,1.80
2022-07-25T22:31:07.004Z,1.70
2022-07-25T22:33:30.996Z,1.80
2022-07-25T22:35:53.262Z,1.70
2022-07-25T22:38:15.543Z,1.85
2022-07-25T22:40:37.795Z,1.80
2022-07-25T22:43:00.030Z,1.65
2022-07-25T22:45:23.932Z,2.00
2022-07-25T22:47:46.385Z,1.80
2022-07-25T22:50:09.518Z,1.70
2022-07-25T22:52:31.851Z,1.90
2022-07-25T22:54:54.330Z,1.70
2022-07-25T22:57:16.690Z,1.80
2022-07-25T22:59:38.939Z,1.52
2022-07-25T23:02:01.158Z,2.00
2022-07-25T23:04:23.501Z,1.92
2022-07-25T23:06:45.827Z,1.90
2022-07-25T23:09:10.703Z,1.83
2022-07-25T23:11:33.224Z,1.98
2022-07-25T23:13:55.511Z,1.90
2022-07-25T23:16:17.863Z,1.50
2022-07-25T23:18:40.505Z,1.83
2022-07-25T23:21:02.724Z,2.40
2022-07-25T23:23:24.994Z,2.20
2022-07-25T23:25:53.601Z,2.10
2022-07-25T23:28:15.835Z,2.00
2022-07-25T23:30:40.461Z,1.60
2022-07-25T23:33:03.057Z,1.63
2022-07-25T23:35:25.329Z,1.60
2022-07-25T23:37:47.785Z,1.95
2022-07-25T23:40:10.419Z,1.52
2022-07-25T23:42:32.813Z,1.40
2022-07-25T23:44:56.742Z,1.65
2022-07-25T23:47:26.715Z,1.75
2022-07-25T23:50:01.970Z,1.40
2022-07-25T23:52:24.258Z,1.67
2022-07-25T23:54:46.527Z,1.52
2022-07-25T23:57:09.132Z,1.70
2022-07-25T23:59:31.428Z,1.98
